createdAt,value
2019-05-19T00:01:51.536Z,16.23
2019-05-19T00:04:44.264Z,16.22
2019-05-19T00:07:34.829Z,16.21
2019-05-19T00:10:24.682Z,16.18
2019-05-19T00:13:17.323Z,16.17
2019-05-19T00:16:07.931Z,16.14
2019-05-19T00:18:58.326Z,16.13
2019-05-19T00:21:49.377Z,16.11
2019-05-19T00:24:38.981Z,16.09
2019-05-19T00:27:34.765Z,16.09
2019-05-19T00:30:39.246Z,16.07
2019-05-19T00:33:31.880Z,16.05
2019-05-19T00:36:22.205Z,16.04
2019-05-19T00:39:25.015Z,16.03
2019-05-19T00:42:17.350Z,16.02
2019-05-19T00:45:09.709Z,16.01
2019-05-19T00:48:01.218Z,16.00
2019-05-19T00:50:50.936Z,15.99
2019-05-19T00:53:40.879Z,15.97
2019-05-19T00:56:36.566Z,15.96
2019-05-19T00:59:29.033Z,15.96
2019-05-19T01:02:19.943Z,15.95
2019-05-19T01:05:09.144Z,15.93
2019-05-19T01:07:58.985Z,15.93
2019-05-19T01:10:48.909Z,15.90
2019-05-19T01:13:38.302Z,15.89
2019-05-19T01:16:27.557Z,15.87
2019-05-19T01:19:17.402Z,15.86
2019-05-19T01:22:06.604Z,15.84
2019-05-19T01:24:56.688Z,15.82
2019-05-19T01:27:45.346Z,15.79
2019-05-19T01:30:35.142Z,15.77
2019-05-19T01:33:24.105Z,15.75
2019-05-19T01:36:13.938Z,15.71
2019-05-19T01:39:03.892Z,15.71
2019-05-19T01:41:53.853Z,15.67
2019-05-19T01:44:43.600Z,15.63
2019-05-19T01:47:33.163Z,15.61
2019-05-19T01:50:23.669Z,15.59
2019-05-19T01:53:12.959Z,15.55
2019-05-19T01:56:02.346Z,15.53
2019-05-19T01:58:52.528Z,15.50
2019-05-19T02:01:41.862Z,15.49
2019-05-19T02:04:31.897Z,15.46
2019-05-19T02:07:21.668Z,15.44
2019-05-19T02:10:11.467Z,15.41
2019-05-19T02:13:04.889Z,15.40
2019-05-19T02:15:52.565Z,15.39
2019-05-19T02:18:42.336Z,15.36
2019-05-19T02:21:31.822Z,15.35
2019-05-19T02:24:23.638Z,15.33
2019-05-19T02:27:12.587Z,15.32
2019-05-19T02:30:02.327Z,15.32
2019-05-19T02:32:52.660Z,15.30
2019-05-19T02:35:42.641Z,15.31
2019-05-19T02:38:32.432Z,15.29
2019-05-19T02:41:22.455Z,15.27
2019-05-19T02:44:12.956Z,15.27
2019-05-19T02:47:04.279Z,15.25
2019-05-19T02:49:54.727Z,15.24
2019-05-19T02:52:45.371Z,15.23
2019-05-19T02:55:35.056Z,15.22
2019-05-19T02:58:25.077Z,15.21
2019-05-19T03:01:14.629Z,15.19
2019-05-19T03:04:04.321Z,15.18
2019-05-19T03:06:55.232Z,15.18
2019-05-19T03:09:44.919Z,15.16
2019-05-19T03:12:35.386Z,15.15
2019-05-19T03:15:25.243Z,15.14
2019-05-19T03:18:16.962Z,15.14
2019-05-19T03:21:10.875Z,15.14
2019-05-19T03:23:57.767Z,15.13
2019-05-19T03:26:46.957Z,15.13
2019-05-19T03:29:41.187Z,15.13
2019-05-19T03:32:36.695Z,15.12
2019-05-19T03:35:27.024Z,15.11
2019-05-19T03:38:18.203Z,15.11
2019-05-19T03:41:07.991Z,15.09
2019-05-19T03:43:57.894Z,15.10
2019-05-19T03:46:47.600Z,15.08
2019-05-19T03:49:39.357Z,15.07
2019-05-19T03:52:29.468Z,15.05
2019-05-19T03:55:19.270Z,15.07
2019-05-19T03:58:09.380Z,15.06
2019-05-19T04:00:59.311Z,15.05
2019-05-19T04:03:49.562Z,15.06
2019-05-19T04:06:40.585Z,15.04
2019-05-19T04:09:29.949Z,15.04
2019-05-19T04:12:20.306Z,15.04
2019-05-19T04:15:10.700Z,15.04
2019-05-19T04:18:00.603Z,15.05
2019-05-19T04:20:51.667Z,15.05
2019-05-19T04:23:43.671Z,15.05
2019-05-19T04:26:32.696Z,15.04
2019-05-19T04:29:22.024Z,15.05
2019-05-19T04:32:11.959Z,15.06
2019-05-19T04:35:01.354Z,15.06
2019-05-19T04:37:51.186Z,15.08
2019-05-19T04:40:43.392Z,15.09
2019-05-19T04:43:33.218Z,15.11
2019-05-19T04:46:22.728Z,15.13
2019-05-19T04:49:12.816Z,15.12
2019-05-19T04:52:06.486Z,15.14
2019-05-19T04:54:53.159Z,15.14
2019-05-19T04:57:45.274Z,15.17
2019-05-19T05:00:34.752Z,15.19
2019-05-19T05:03:24.978Z,15.20
2019-05-19T05:06:14.484Z,15.22
2019-05-19T05:09:05.131Z,15.23
2019-05-19T05:11:54.345Z,15.24
2019-05-19T05:14:44.166Z,15.25
2019-05-19T05:17:33.384Z,15.27
2019-05-19T05:20:23.089Z,15.30
2019-05-19T05:23:12.676Z,15.30
2019-05-19T05:26:01.821Z,15.31
2019-05-19T05:28:51.499Z,15.33
2019-05-19T05:31:41.416Z,15.32
2019-05-19T05:34:30.686Z,15.35
2019-05-19T05:37:20.663Z,15.36
2019-05-19T05:40:10.608Z,15.39
2019-05-19T05:43:00.139Z,15.41
2019-05-19T05:45:49.840Z,15.41
2019-05-19T05:48:39.978Z,15.43
2019-05-19T05:51:29.147Z,15.45
2019-05-19T05:54:18.349Z,15.46
2019-05-19T05:57:08.497Z,15.49
2019-05-19T05:59:58.472Z,15.50
2019-05-19T06:02:49.136Z,15.52
2019-05-19T06:05:39.007Z,15.53
2019-05-19T06:08:29.002Z,15.54
2019-05-19T06:11:18.800Z,15.56
2019-05-19T06:14:08.425Z,15.59
2019-05-19T06:16:58.967Z,15.62
2019-05-19T06:19:48.810Z,15.63
2019-05-19T06:22:55.272Z,15.65
2019-05-19T06:25:33.011Z,15.66
2019-05-19T06:28:22.277Z,15.68
2019-05-19T06:31:14.244Z,15.69
2019-05-19T06:34:03.797Z,15.73
2019-05-19T06:36:56.195Z,15.74
2019-05-19T06:39:45.642Z,15.77
2019-05-19T06:42:36.199Z,15.78
2019-05-19T06:45:27.111Z,15.81
2019-05-19T06:48:16.407Z,15.83
2019-05-19T06:51:05.386Z,15.86
2019-05-19T06:53:59.254Z,15.89
2019-05-19T06:56:49.334Z,15.93
2019-05-19T06:59:38.989Z,15.98
2019-05-19T07:02:31.033Z,16.02
2019-05-19T07:05:20.839Z,16.07
2019-05-19T07:08:13.053Z,16.12
2019-05-19T07:11:03.120Z,16.17
2019-05-19T07:13:55.700Z,16.22
2019-05-19T07:16:45.401Z,16.28
2019-05-19T07:19:35.206Z,16.32
2019-05-19T07:22:25.482Z,16.36
2019-05-19T07:25:15.002Z,16.41
2019-05-19T07:28:04.711Z,16.45
2019-05-19T07:30:54.955Z,16.48
2019-05-19T07:33:44.926Z,16.52
2019-05-19T07:36:34.119Z,16.55
2019-05-19T07:39:23.636Z,16.61
2019-05-19T07:42:13.755Z,16.63
2019-05-19T07:45:03.982Z,16.67
2019-05-19T07:47:53.715Z,16.70
2019-05-19T07:50:43.753Z,16.74
2019-05-19T07:53:42.537Z,16.80
2019-05-19T07:56:26.509Z,16.84
2019-05-19T07:59:16.428Z,16.89
2019-05-19T08:02:06.739Z,16.94
2019-05-19T08:04:56.539Z,16.98
2019-05-19T08:07:46.861Z,17.02
2019-05-19T08:10:36.820Z,17.06
2019-05-19T08:13:28.395Z,17.11
2019-05-19T08:16:18.070Z,17.13
2019-05-19T08:19:07.766Z,17.16
2019-05-19T08:21:57.609Z,17.21
2019-05-19T08:24:46.764Z,17.24
2019-05-19T08:27:37.098Z,17.29
2019-05-19T08:30:30.992Z,17.32
2019-05-19T08:33:22.643Z,17.36
2019-05-19T08:36:12.882Z,17.39
2019-05-19T08:39:04.707Z,17.43
2019-05-19T08:41:58.130Z,17.47
2019-05-19T08:44:48.939Z,17.49
2019-05-19T08:47:39.197Z,17.53
2019-05-19T08:50:30.384Z,17.58
2019-05-19T08:53:20.457Z,17.64
2019-05-19T08:56:10.755Z,17.70
2019-05-19T08:59:00.800Z,17.77
2019-05-19T09:01:51.679Z,17.85
2019-05-19T09:04:40.966Z,17.92
2019-05-19T09:07:30.211Z,18.00
2019-05-19T09:10:20.427Z,18.08
2019-05-19T09:13:10.370Z,18.15
2019-05-19T09:16:02.522Z,18.21
2019-05-19T09:18:51.855Z,18.29
2019-05-19T09:21:42.010Z,18.36
2019-05-19T09:24:31.981Z,18.42
2019-05-19T09:27:21.934Z,18.49
2019-05-19T09:30:12.580Z,18.57
2019-05-19T09:33:02.467Z,18.63
2019-05-19T09:35:52.482Z,18.73
2019-05-19T09:38:41.770Z,18.80
2019-05-19T09:41:31.175Z,18.90
2019-05-19T09:44:21.134Z,19.00
2019-05-19T09:47:11.119Z,19.10
2019-05-19T09:50:00.228Z,19.20
2019-05-19T09:52:49.532Z,19.32
2019-05-19T09:55:38.835Z,19.41
2019-05-19T09:58:28.776Z,19.51
2019-05-19T10:01:18.724Z,19.64
2019-05-19T10:04:08.081Z,19.78
2019-05-19T10:06:57.943Z,19.94
2019-05-19T10:10:17.399Z,20.08
2019-05-19T10:13:07.487Z,20.26
2019-05-19T10:15:57.600Z,20.46
2019-05-19T10:18:47.755Z,20.65
2019-05-19T10:21:37.819Z,20.80
2019-05-19T10:24:28.928Z,20.95
2019-05-19T10:27:21.784Z,21.08
2019-05-19T10:30:11.103Z,21.23
2019-05-19T10:33:01.391Z,21.37
2019-05-19T10:35:52.540Z,21.55
2019-05-19T10:38:42.978Z,21.75
2019-05-19T10:41:34.717Z,21.98
2019-05-19T10:44:25.031Z,22.20
2019-05-19T10:47:15.097Z,22.38
2019-05-19T10:50:05.896Z,22.55
2019-05-19T10:52:56.305Z,22.68
2019-05-19T10:55:46.442Z,22.81
2019-05-19T10:58:37.421Z,22.89
2019-05-19T11:01:26.916Z,22.95
2019-05-19T11:04:17.791Z,22.99
2019-05-19T11:07:07.113Z,23.02
2019-05-19T11:09:57.012Z,23.00
2019-05-19T11:12:48.534Z,22.99
2019-05-19T11:15:38.837Z,22.95
2019-05-19T11:18:29.431Z,22.91
2019-05-19T11:21:19.850Z,22.87
2019-05-19T11:24:11.625Z,22.86
2019-05-19T11:27:02.404Z,22.85
2019-05-19T11:29:54.804Z,22.83
2019-05-19T11:32:45.721Z,22.85
2019-05-19T11:35:35.098Z,22.87
2019-05-19T11:38:25.325Z,22.90
2019-05-19T11:41:14.837Z,22.93
2019-05-19T11:44:03.558Z,23.00
2019-05-19T11:46:52.785Z,23.10
2019-05-19T11:49:42.065Z,23.23
2019-05-19T11:52:31.350Z,23.38
2019-05-19T11:55:20.548Z,23.51
2019-05-19T11:58:09.372Z,23.65
2019-05-19T12:00:58.524Z,23.77
2019-05-19T12:03:47.554Z,23.93
2019-05-19T12:06:39.755Z,24.10
2019-05-19T12:09:28.057Z,24.28
2019-05-19T12:12:17.096Z,24.46
2019-05-19T12:15:07.205Z,24.68
2019-05-19T12:17:57.247Z,24.87
2019-05-19T12:20:46.542Z,25.07
2019-05-19T12:23:35.776Z,25.27
2019-05-19T12:26:25.012Z,25.45
2019-05-19T12:29:14.285Z,25.65
2019-05-19T12:32:03.031Z,25.84
2019-05-19T12:34:53.017Z,26.00
2019-05-19T12:37:42.381Z,26.18
2019-05-19T12:40:31.738Z,26.34
2019-05-19T12:43:21.098Z,26.49
2019-05-19T12:46:16.471Z,26.61
2019-05-19T12:49:01.712Z,26.71
2019-05-19T12:51:51.391Z,26.83
2019-05-19T12:54:41.116Z,26.92
2019-05-19T12:57:31.169Z,26.97
2019-05-19T13:00:21.381Z,27.07
2019-05-19T13:03:10.703Z,27.07
2019-05-19T13:06:00.109Z,27.12
2019-05-19T13:08:49.023Z,27.20
2019-05-19T13:11:38.797Z,27.24
2019-05-19T13:14:28.315Z,27.34
2019-05-19T13:17:17.552Z,27.43
2019-05-19T13:20:07.257Z,27.52
2019-05-19T13:22:56.544Z,27.63
2019-05-19T13:25:46.519Z,27.76
2019-05-19T13:28:35.164Z,27.90
2019-05-19T13:31:24.171Z,28.04
2019-05-19T13:34:12.988Z,28.14
2019-05-19T13:37:02.059Z,28.12
2019-05-19T13:39:51.237Z,28.12
2019-05-19T13:42:40.881Z,28.10
2019-05-19T13:45:29.882Z,27.99
2019-05-19T13:48:20.614Z,27.91
2019-05-19T13:51:09.872Z,27.83
2019-05-19T13:53:59.887Z,27.72
2019-05-19T13:56:49.783Z,27.63
2019-05-19T13:59:39.463Z,27.21
2019-05-19T14:02:29.207Z,27.25
2019-05-19T14:05:17.783Z,27.26
2019-05-19T14:08:07.407Z,27.21
2019-05-19T14:10:56.714Z,27.14
2019-05-19T14:13:46.841Z,27.08
2019-05-19T14:16:35.908Z,27.01
2019-05-19T14:19:25.202Z,26.91
2019-05-19T14:22:15.395Z,26.82
2019-05-19T14:25:05.236Z,26.74
2019-05-19T14:27:55.975Z,26.63
2019-05-19T14:30:45.145Z,26.52
2019-05-19T14:33:35.094Z,26.43
2019-05-19T14:36:25.317Z,26.31
2019-05-19T14:39:17.455Z,26.18
2019-05-19T14:42:12.225Z,26.10
2019-05-19T14:45:03.667Z,26.00
2019-05-19T14:47:53.016Z,25.91
2019-05-19T14:50:42.388Z,25.82
2019-05-19T14:53:34.743Z,25.74
2019-05-19T14:56:23.979Z,25.68
2019-05-19T14:59:15.670Z,25.59
2019-05-19T15:02:07.006Z,25.50
2019-05-19T15:04:59.528Z,25.42
2019-05-19T15:07:53.308Z,25.37
2019-05-19T15:10:42.548Z,25.28
2019-05-19T15:13:32.313Z,25.19
2019-05-19T15:16:22.455Z,25.12
2019-05-19T15:19:12.440Z,25.06
2019-05-19T15:22:02.756Z,25.02
2019-05-19T15:24:52.750Z,24.93
2019-05-19T15:27:42.488Z,24.87
2019-05-19T15:30:31.841Z,24.81
2019-05-19T15:33:21.525Z,24.75
2019-05-19T15:36:11.452Z,24.67
2019-05-19T15:39:00.365Z,24.56
2019-05-19T15:41:50.385Z,24.51
2019-05-19T15:44:40.056Z,24.42
2019-05-19T15:47:29.556Z,24.34
2019-05-19T15:50:18.765Z,24.22
2019-05-19T15:53:08.343Z,24.13
2019-05-19T15:55:57.978Z,24.04
2019-05-19T15:58:48.092Z,23.97
2019-05-19T16:01:39.985Z,23.91
2019-05-19T16:04:29.692Z,23.81
2019-05-19T16:07:19.286Z,23.71
2019-05-19T16:10:09.045Z,23.64
2019-05-19T16:12:58.995Z,23.56
2019-05-19T16:15:49.548Z,23.45
2019-05-19T16:18:39.125Z,23.36
2019-05-19T16:21:28.932Z,23.29
2019-05-19T16:24:18.602Z,23.20
2019-05-19T16:27:08.347Z,23.12
2019-05-19T16:29:57.852Z,23.00
2019-05-19T16:32:47.137Z,22.91
2019-05-19T16:38:24.696Z,22.75
2019-05-19T16:41:14.452Z,22.69
2019-05-19T16:44:03.599Z,22.61
2019-05-19T16:46:53.190Z,22.53
2019-05-19T16:49:43.097Z,22.44
2019-05-19T16:52:32.603Z,22.40
2019-05-19T16:55:25.544Z,22.33
2019-05-19T16:58:21.289Z,22.26
2019-05-19T17:01:06.217Z,22.19
2019-05-19T17:03:55.998Z,22.10
2019-05-19T17:06:45.772Z,21.99
2019-05-19T17:09:36.177Z,21.88
2019-05-19T17:12:24.977Z,21.81
2019-05-19T17:15:15.315Z,21.74
2019-05-19T17:18:08.158Z,21.65
2019-05-19T17:20:55.954Z,21.55
2019-05-19T17:23:45.817Z,21.48
2019-05-19T17:26:35.180Z,21.25
2019-05-19T17:29:25.679Z,21.17
2019-05-19T17:32:15.005Z,21.09
2019-05-19T17:35:04.243Z,21.00
2019-05-19T17:37:53.577Z,20.93
2019-05-19T17:40:42.539Z,20.82
2019-05-19T17:43:31.258Z,20.77
2019-05-19T17:46:21.267Z,20.69
2019-05-19T17:49:10.603Z,20.62
2019-05-19T17:51:59.844Z,20.55
2019-05-19T17:54:49.351Z,20.46
2019-05-19T17:57:39.078Z,20.41
2019-05-19T18:00:37.301Z,20.33
2019-05-19T18:03:27.480Z,20.29
2019-05-19T18:06:16.243Z,20.18
2019-05-19T18:09:06.217Z,20.13
2019-05-19T18:11:55.133Z,20.05
2019-05-19T18:14:44.476Z,19.97
2019-05-19T18:17:33.523Z,19.92
2019-05-19T18:20:24.382Z,19.90
2019-05-19T18:23:14.146Z,19.82
2019-05-19T18:26:03.390Z,19.76
2019-05-19T18:28:52.563Z,19.74
2019-05-19T18:31:41.944Z,19.70
2019-05-19T18:34:30.640Z,19.64
2019-05-19T18:37:20.828Z,19.61
2019-05-19T18:40:10.206Z,19.57
2019-05-19T18:43:01.563Z,19.52
2019-05-19T18:45:51.309Z,19.46
2019-05-19T18:48:41.374Z,19.42
2019-05-19T18:51:31.397Z,19.38
2019-05-19T18:54:21.806Z,19.36
2019-05-19T18:57:10.929Z,19.30
2019-05-19T19:00:00.280Z,19.26
2019-05-19T19:02:49.635Z,19.25
2019-05-19T19:05:38.721Z,19.20
2019-05-19T19:08:27.868Z,19.18
2019-05-19T19:11:18.405Z,19.14
2019-05-19T19:14:07.970Z,19.07
2019-05-19T19:16:59.344Z,19.03
2019-05-19T19:19:49.281Z,19.00
2019-05-19T19:22:38.377Z,18.95
2019-05-19T19:25:28.361Z,18.90
2019-05-19T19:28:17.501Z,18.84
2019-05-19T19:31:06.977Z,18.79
2019-05-19T19:33:56.334Z,18.76
2019-05-19T19:36:46.586Z,18.71
2019-05-19T19:39:36.827Z,18.68
2019-05-19T19:42:26.854Z,18.62
2019-05-19T19:45:16.011Z,18.58
2019-05-19T19:48:05.749Z,18.54
2019-05-19T19:50:55.404Z,18.49
2019-05-19T19:53:45.996Z,18.45
2019-05-19T19:56:36.611Z,18.40
2019-05-19T19:59:26.660Z,18.35
2019-05-19T20:02:16.577Z,18.31
2019-05-19T20:05:06.347Z,18.27
2019-05-19T20:07:56.169Z,18.22
2019-05-19T20:10:45.743Z,18.17
2019-05-19T20:13:35.725Z,18.15
2019-05-19T20:16:25.748Z,18.09
2019-05-19T20:19:15.632Z,18.07
2019-05-19T20:22:05.535Z,18.04
2019-05-19T20:24:56.277Z,17.97
2019-05-19T20:27:45.612Z,17.94
2019-05-19T20:30:36.663Z,17.91
2019-05-19T20:33:27.273Z,17.87
2019-05-19T20:36:18.227Z,17.83
2019-05-19T20:39:08.288Z,17.81
2019-05-19T20:41:58.128Z,17.76
2019-05-19T20:44:47.145Z,17.73
2019-05-19T20:47:37.845Z,17.69
2019-05-19T20:50:28.009Z,17.68
2019-05-19T20:53:17.732Z,17.64
2019-05-19T20:56:07.313Z,17.59
2019-05-19T20:58:56.430Z,17.57
2019-05-19T21:01:46.166Z,17.55
2019-05-19T21:04:35.678Z,17.50
2019-05-19T21:07:27.350Z,17.46
2019-05-19T21:10:17.356Z,17.43
2019-05-19T21:13:07.131Z,17.39
2019-05-19T21:15:57.026Z,17.36
2019-05-19T21:18:47.142Z,17.33
2019-05-19T21:21:36.967Z,17.29
2019-05-19T21:24:26.180Z,17.27
2019-05-19T21:27:16.763Z,17.25
2019-05-19T21:30:07.122Z,17.19
2019-05-19T21:32:56.313Z,17.17
2019-05-19T21:35:46.053Z,17.14
2019-05-19T21:38:35.748Z,17.13
2019-05-19T21:41:24.419Z,17.08
2019-05-19T21:44:14.592Z,17.06
2019-05-19T21:47:04.184Z,17.03
2019-05-19T21:49:54.001Z,17.01
2019-05-19T21:52:43.048Z,16.99
2019-05-19T21:55:33.110Z,16.96
2019-05-19T21:58:22.658Z,16.93
2019-05-19T22:01:22.780Z,16.91
2019-05-19T22:04:05.811Z,16.88
2019-05-19T22:07:02.371Z,16.86
2019-05-19T22:09:52.122Z,16.83
2019-05-19T22:12:42.310Z,16.80
2019-05-19T22:15:31.761Z,16.78
2019-05-19T22:18:21.736Z,16.76
2019-05-19T22:21:11.901Z,16.74
2019-05-19T22:24:02.373Z,16.71
2019-05-19T22:26:52.239Z,16.70
2019-05-19T22:29:41.946Z,16.68
2019-05-19T22:32:31.166Z,16.65
2019-05-19T22:35:20.901Z,16.63
2019-05-19T22:38:09.923Z,16.61
2019-05-19T22:41:00.011Z,16.60
2019-05-19T22:43:49.812Z,16.57
2019-05-19T22:46:39.087Z,16.55
2019-05-19T22:49:28.805Z,16.52
2019-05-19T22:52:18.921Z,16.50
2019-05-19T22:55:08.791Z,16.50
2019-05-19T22:57:58.633Z,16.47
2019-05-19T23:00:48.034Z,16.46
2019-05-19T23:03:37.111Z,16.44
2019-05-19T23:06:26.701Z,16.43
2019-05-19T23:09:16.425Z,16.41
2019-05-19T23:12:05.539Z,16.41
2019-05-19T23:14:55.549Z,16.39
2019-05-19T23:17:44.220Z,16.37
2019-05-19T23:20:32.437Z,16.36
2019-05-19T23:23:21.475Z,16.34
2019-05-19T23:26:10.988Z,16.33
2019-05-19T23:29:00.573Z,16.30
2019-05-19T23:31:50.221Z,16.29
2019-05-19T23:34:39.665Z,16.28
2019-05-19T23:37:28.915Z,16.28
2019-05-19T23:40:19.044Z,16.27
2019-05-19T23:43:08.682Z,16.26
2019-05-19T23:45:58.277Z,16.24
2019-05-19T23:48:48.720Z,16.22
2019-05-19T23:51:38.323Z,16.21
2019-05-19T23:54:27.366Z,16.20
2019-05-19T23:57:17.113Z,16.18
